createdAt,value
2018-07-16T00:01:22.458Z,22.70
2018-07-16T00:03:53.915Z,22.70
2018-07-16T00:06:25.153Z,22.70
2018-07-16T00:08:56.604Z,22.70
2018-07-16T00:11:27.967Z,22.70
2018-07-16T00:13:59.308Z,22.70
2018-07-16T00:16:30.553Z,22.70
2018-07-16T00:19:02.077Z,22.50
2018-07-16T00:21:33.568Z,22.40
2018-07-16T00:24:05.022Z,22.50
2018-07-16T00:26:36.245Z,22.50
2018-07-16T00:29:07.555Z,22.60
2018-07-16T00:31:39.252Z,22.40
2018-07-16T00:34:10.498Z,22.30
2018-07-16T00:36:41.633Z,22.30
2018-07-16T00:39:13.163Z,22.30
2018-07-16T00:41:45.248Z,22.20
2018-07-16T00:44:16.644Z,22.10
2018-07-16T00:46:48.278Z,22.00
2018-07-16T00:49:19.810Z,22.10
2018-07-16T00:51:51.192Z,22.10
2018-07-16T00:54:22.962Z,22.10
2018-07-16T00:56:54.191Z,22.10
2018-07-16T00:59:25.622Z,21.90
2018-07-16T01:01:56.935Z,21.90
2018-07-16T01:04:28.287Z,22.00
2018-07-16T01:06:59.466Z,22.00
2018-07-16T01:09:30.922Z,22.00
2018-07-16T01:12:02.356Z,22.00
2018-07-16T01:14:33.959Z,21.80
2018-07-16T01:17:05.271Z,21.80
2018-07-16T01:19:36.919Z,21.80
2018-07-16T01:22:08.363Z,21.80
2018-07-16T01:24:39.765Z,21.80
2018-07-16T01:27:11.442Z,21.80
2018-07-16T01:29:42.962Z,21.50
2018-07-16T01:32:14.300Z,21.50
2018-07-16T01:34:45.535Z,21.70
2018-07-16T01:37:16.962Z,21.90
2018-07-16T01:39:48.439Z,22.00
2018-07-16T01:42:19.658Z,21.80
2018-07-16T01:44:51.119Z,21.80
2018-07-16T01:47:22.468Z,21.80
2018-07-16T01:49:53.938Z,21.70
2018-07-16T01:52:25.532Z,21.80
2018-07-16T01:54:56.726Z,21.70
2018-07-16T01:57:28.163Z,21.60
2018-07-16T01:59:59.807Z,21.60
2018-07-16T02:02:31.271Z,21.70
2018-07-16T02:05:02.736Z,21.60
2018-07-16T02:07:33.963Z,21.60
2018-07-16T02:10:05.615Z,21.60
2018-07-16T02:12:36.943Z,21.70
2018-07-16T02:15:08.456Z,21.60
2018-07-16T02:17:39.878Z,21.60
2018-07-16T02:20:11.478Z,21.70
2018-07-16T02:22:42.665Z,21.70
2018-07-16T02:25:14.205Z,21.50
2018-07-16T02:27:45.481Z,21.50
2018-07-16T02:30:17.039Z,21.50
2018-07-16T02:32:48.382Z,21.50
2018-07-16T02:35:19.957Z,21.50
2018-07-16T02:37:51.372Z,21.50
2018-07-16T02:40:22.772Z,21.50
2018-07-16T02:42:54.260Z,21.40
2018-07-16T02:45:25.894Z,21.30
2018-07-16T02:47:57.440Z,21.30
2018-07-16T02:50:29.428Z,21.30
2018-07-16T02:53:00.986Z,21.30
2018-07-16T02:55:32.445Z,21.50
2018-07-16T02:58:03.965Z,21.40
2018-07-16T03:00:35.231Z,21.30
2018-07-16T03:03:06.535Z,21.40
2018-07-16T03:05:38.120Z,21.30
2018-07-16T03:08:09.291Z,21.20
2018-07-16T03:10:40.819Z,21.10
2018-07-16T03:13:12.294Z,21.10
2018-07-16T03:15:43.624Z,21.10
2018-07-16T03:18:15.081Z,21.10
2018-07-16T03:20:46.560Z,21.00
2018-07-16T03:23:18.186Z,21.10
2018-07-16T03:25:49.583Z,21.00
2018-07-16T03:28:20.786Z,21.00
2018-07-16T03:30:52.259Z,21.00
2018-07-16T03:33:23.715Z,21.00
2018-07-16T03:35:54.958Z,21.00
2018-07-16T03:38:26.183Z,21.10
2018-07-16T03:40:57.567Z,21.00
2018-07-16T03:43:29.153Z,21.00
2018-07-16T03:46:00.619Z,21.10
2018-07-16T03:48:32.096Z,21.10
2018-07-16T03:51:03.341Z,21.30
2018-07-16T03:53:34.806Z,21.30
2018-07-16T03:56:06.241Z,21.50
2018-07-16T03:58:37.789Z,21.70
2018-07-16T04:01:09.545Z,22.00
2018-07-16T04:03:41.087Z,22.20
2018-07-16T04:06:12.351Z,22.30
2018-07-16T04:08:43.334Z,22.40
2018-07-16T04:11:14.866Z,22.50
2018-07-16T04:13:46.391Z,22.70
2018-07-16T04:16:17.942Z,22.90
2018-07-16T04:18:49.182Z,23.10
2018-07-16T04:21:20.571Z,23.40
2018-07-16T04:23:52.006Z,23.50
2018-07-16T04:26:23.557Z,23.50
2018-07-16T04:28:54.901Z,23.80
2018-07-16T04:31:26.422Z,23.90
2018-07-16T04:33:57.776Z,24.00
2018-07-16T04:36:29.374Z,24.20
2018-07-16T04:39:01.159Z,24.50
2018-07-16T04:41:32.513Z,24.60
2018-07-16T04:44:03.963Z,24.90
2018-07-16T04:46:35.387Z,25.10
2018-07-16T04:49:06.840Z,25.40
2018-07-16T04:51:38.367Z,25.50
2018-07-16T04:54:09.713Z,25.70
2018-07-16T04:56:41.243Z,25.70
2018-07-16T04:59:12.511Z,26.10
2018-07-16T05:01:44.042Z,26.30
2018-07-16T05:04:15.588Z,26.50
2018-07-16T05:06:46.868Z,26.60
2018-07-16T05:09:18.193Z,26.90
2018-07-16T05:11:49.940Z,27.10
2018-07-16T05:14:21.202Z,27.20
2018-07-16T05:19:23.644Z,27.50
2018-07-16T05:21:54.968Z,27.80
2018-07-16T05:24:26.403Z,28.00
2018-07-16T05:26:58.143Z,28.10
2018-07-16T05:29:29.610Z,28.30
2018-07-16T05:32:00.979Z,28.50
2018-07-16T05:34:32.231Z,28.50
2018-07-16T05:37:03.791Z,28.90
2018-07-16T05:39:35.312Z,28.90
2018-07-16T05:42:06.767Z,29.10
2018-07-16T05:44:38.222Z,29.50
2018-07-16T05:47:10.023Z,29.50
2018-07-16T05:49:41.300Z,30.00
2018-07-16T05:52:12.788Z,30.20
2018-07-16T05:54:44.203Z,30.50
2018-07-16T05:57:15.762Z,30.30
2018-07-16T05:59:46.981Z,30.50
2018-07-16T06:02:18.493Z,30.90
2018-07-16T06:04:50.003Z,31.20
2018-07-16T06:07:21.709Z,31.30
2018-07-16T06:09:53.204Z,31.70
2018-07-16T06:12:24.359Z,31.60
2018-07-16T06:14:55.811Z,31.90
2018-07-16T06:19:57.835Z,31.70
2018-07-16T06:22:29.271Z,31.80
2018-07-16T06:25:00.753Z,32.30
2018-07-16T06:27:32.104Z,32.10
2018-07-16T06:30:03.452Z,31.80
2018-07-16T06:32:35.125Z,32.20
2018-07-16T06:35:06.369Z,32.10
2018-07-16T06:37:38.436Z,32.40
2018-07-16T06:40:09.956Z,32.30
2018-07-16T06:42:41.057Z,32.20
2018-07-16T06:45:12.679Z,32.30
2018-07-16T06:47:44.136Z,32.20
2018-07-16T06:50:15.481Z,32.50
2018-07-16T06:52:46.967Z,32.80
2018-07-16T06:55:18.598Z,32.90
2018-07-16T06:57:49.763Z,33.40
2018-07-16T07:00:21.236Z,33.20
2018-07-16T07:02:52.754Z,33.30
2018-07-16T07:07:55.124Z,33.30
2018-07-16T07:10:26.626Z,33.50
2018-07-16T07:12:58.078Z,33.10
2018-07-16T07:15:29.473Z,33.40
2018-07-16T07:18:00.846Z,33.40
2018-07-16T07:20:32.271Z,32.70
2018-07-16T07:23:03.758Z,32.40
2018-07-16T07:25:35.455Z,32.20
2018-07-16T07:28:06.762Z,32.10
2018-07-16T07:30:38.201Z,31.60
2018-07-16T07:33:09.615Z,31.20
2018-07-16T07:35:41.111Z,31.10
2018-07-16T07:38:12.448Z,31.20
2018-07-16T07:40:43.790Z,31.20
2018-07-16T07:43:15.280Z,31.70
2018-07-16T07:45:46.800Z,32.30
2018-07-16T07:48:18.257Z,33.40
2018-07-16T07:50:49.780Z,33.70
2018-07-16T07:53:21.012Z,34.10
2018-07-16T07:55:52.472Z,34.70
2018-07-16T07:58:23.772Z,34.20
2018-07-16T08:00:55.452Z,34.30
2018-07-16T08:03:26.958Z,34.90
2018-07-16T08:06:03.204Z,35.70
2018-07-16T08:08:35.013Z,35.70
2018-07-16T08:11:07.119Z,35.90
2018-07-16T08:13:38.560Z,36.40
2018-07-16T08:16:09.876Z,36.30
2018-07-16T08:18:41.400Z,36.30
2018-07-16T08:21:12.815Z,36.60
2018-07-16T08:23:44.199Z,36.80
2018-07-16T08:26:15.632Z,37.20
2018-07-16T08:28:47.311Z,37.30
2018-07-16T08:31:18.654Z,37.10
2018-07-16T08:33:50.101Z,36.50
2018-07-16T08:36:21.416Z,35.70
2018-07-16T08:38:52.702Z,35.80
2018-07-16T08:41:24.357Z,37.10
2018-07-16T08:43:55.787Z,37.90
2018-07-16T08:46:27.039Z,38.30
2018-07-16T08:51:29.445Z,37.50
2018-07-16T08:54:00.858Z,37.20
2018-07-16T08:56:32.317Z,37.90
2018-07-16T08:59:04.157Z,38.30
2018-07-16T09:01:35.484Z,38.30
2018-07-16T09:04:07.031Z,37.90
2018-07-16T09:06:38.109Z,38.30
2018-07-16T09:09:09.483Z,38.20
2018-07-16T09:11:40.835Z,38.20
2018-07-16T09:14:12.247Z,37.70
2018-07-16T09:16:43.605Z,37.70
2018-07-16T09:19:15.147Z,37.00
2018-07-16T09:21:46.518Z,36.20
2018-07-16T09:29:19.363Z,36.90
2018-07-16T09:31:50.783Z,36.60
2018-07-16T09:34:22.070Z,37.10
2018-07-16T09:36:53.485Z,37.20
2018-07-16T09:39:25.054Z,37.70
2018-07-16T09:41:56.559Z,37.60
2018-07-16T09:44:28.059Z,37.60
2018-07-16T09:46:59.543Z,37.20
2018-07-16T09:49:31.210Z,36.50
2018-07-16T09:52:02.918Z,35.70
2018-07-16T09:54:34.286Z,35.00
2018-07-16T09:57:05.700Z,34.70
2018-07-16T10:02:12.832Z,33.70
2018-07-16T10:04:44.521Z,33.50
2018-07-16T10:07:15.821Z,33.50
2018-07-16T10:09:47.170Z,32.90
2018-07-16T10:12:18.619Z,33.10
2018-07-16T10:14:50.155Z,32.90
2018-07-16T10:17:21.502Z,32.90
2018-07-16T10:22:23.945Z,32.70
2018-07-16T10:24:55.207Z,32.80
2018-07-16T10:27:26.606Z,33.00
2018-07-16T10:29:58.077Z,32.80
2018-07-16T10:32:29.672Z,33.00
2018-07-16T10:35:01.039Z,32.80
2018-07-16T10:37:32.296Z,32.70
2018-07-16T10:40:03.853Z,32.60
2018-07-16T10:42:35.468Z,32.60
2018-07-16T10:45:07.142Z,32.70
2018-07-16T10:47:38.423Z,33.10
2018-07-16T10:50:09.946Z,33.10
2018-07-16T10:52:41.431Z,32.90
2018-07-16T10:55:13.087Z,33.20
2018-07-16T10:57:44.300Z,33.50
2018-07-16T11:00:15.727Z,34.00
2018-07-16T11:02:47.097Z,34.10
2018-07-16T11:05:18.734Z,33.70
2018-07-16T11:07:50.243Z,33.40
2018-07-16T11:10:21.672Z,33.60
2018-07-16T11:12:52.977Z,33.70
2018-07-16T11:15:24.458Z,33.90
2018-07-16T11:17:55.802Z,33.50
2018-07-16T11:20:27.066Z,33.50
2018-07-16T11:22:58.592Z,33.40
2018-07-16T11:25:30.022Z,33.40
2018-07-16T11:28:01.604Z,33.60
2018-07-16T11:30:33.191Z,33.70
2018-07-16T11:33:04.500Z,33.70
2018-07-16T11:35:35.863Z,34.00
2018-07-16T11:38:07.185Z,33.80
2018-07-16T11:40:38.648Z,34.20
2018-07-16T11:45:40.828Z,34.00
2018-07-16T11:48:12.104Z,34.20
2018-07-16T11:50:43.182Z,34.20
2018-07-16T11:53:14.651Z,33.60
2018-07-16T11:55:46.139Z,33.00
2018-07-16T11:58:17.573Z,33.60
2018-07-16T12:00:48.838Z,33.70
2018-07-16T12:03:20.171Z,33.20
2018-07-16T12:05:51.542Z,33.20
2018-07-16T12:08:23.037Z,33.20
2018-07-16T12:10:54.592Z,32.60
2018-07-16T12:13:25.940Z,32.40
2018-07-16T12:15:57.434Z,33.00
2018-07-16T12:20:59.417Z,33.00
2018-07-16T12:23:31.151Z,33.20
2018-07-16T12:26:02.564Z,33.40
2018-07-16T12:28:34.248Z,32.70
2018-07-16T12:31:06.096Z,32.80
2018-07-16T12:33:37.557Z,32.80
2018-07-16T12:36:09.163Z,32.70
2018-07-16T12:38:40.882Z,32.60
2018-07-16T12:41:12.249Z,32.70
2018-07-16T12:43:43.723Z,32.60
2018-07-16T12:46:15.124Z,32.50
2018-07-16T12:48:46.483Z,32.70
2018-07-16T12:51:17.792Z,32.50
2018-07-16T12:53:48.851Z,32.50
2018-07-16T12:56:20.426Z,32.80
2018-07-16T12:58:51.861Z,32.90
2018-07-16T13:01:23.409Z,32.80
2018-07-16T13:03:54.782Z,32.80
2018-07-16T13:06:26.324Z,32.60
2018-07-16T13:11:28.295Z,32.70
2018-07-16T13:13:59.941Z,32.60
2018-07-16T13:16:31.314Z,32.60
2018-07-16T13:19:02.776Z,32.50
2018-07-16T13:21:34.174Z,32.10
2018-07-16T13:24:05.684Z,31.60
2018-07-16T13:26:36.849Z,31.60
2018-07-16T13:29:08.323Z,31.40
2018-07-16T13:31:40.166Z,31.80
2018-07-16T13:34:11.488Z,31.60
2018-07-16T13:36:43.232Z,31.70
2018-07-16T13:39:14.543Z,31.80
2018-07-16T13:41:45.829Z,31.60
2018-07-16T13:44:17.337Z,31.70
2018-07-16T13:46:48.960Z,31.70
2018-07-16T13:49:20.198Z,31.60
2018-07-16T13:51:51.429Z,31.60
2018-07-16T13:54:22.899Z,31.60
2018-07-16T13:56:54.179Z,31.40
2018-07-16T13:59:25.240Z,31.40
2018-07-16T14:04:27.556Z,31.50
2018-07-16T14:06:59.330Z,31.60
2018-07-16T14:09:30.827Z,31.60
2018-07-16T14:12:02.203Z,31.60
2018-07-16T14:14:33.489Z,31.60
2018-07-16T14:17:05.281Z,31.50
2018-07-16T14:19:36.588Z,31.40
2018-07-16T14:22:08.177Z,31.30
2018-07-16T14:24:39.639Z,31.20
2018-07-16T14:27:10.936Z,31.20
2018-07-16T14:29:42.348Z,31.30
2018-07-16T14:32:13.716Z,31.50
2018-07-16T14:34:45.084Z,31.20
2018-07-16T14:37:16.454Z,31.00
2018-07-16T14:39:47.940Z,30.90
2018-07-16T14:42:19.291Z,31.00
2018-07-16T14:44:50.557Z,31.10
2018-07-16T14:47:22.103Z,31.20
2018-07-16T14:49:53.884Z,30.90
2018-07-16T14:52:25.503Z,30.90
2018-07-16T14:54:56.787Z,30.80
2018-07-16T14:57:28.210Z,30.80
2018-07-16T15:02:30.274Z,30.90
2018-07-16T15:05:01.617Z,31.10
2018-07-16T15:07:33.000Z,31.00
2018-07-16T15:10:04.527Z,31.10
2018-07-16T15:12:36.074Z,31.10
2018-07-16T15:15:07.661Z,31.30
2018-07-16T15:17:39.195Z,31.00
2018-07-16T15:20:10.741Z,30.50
2018-07-16T15:22:42.108Z,30.60
2018-07-16T15:25:13.514Z,30.60
2018-07-16T15:27:44.900Z,30.40
2018-07-16T15:30:16.198Z,30.50
2018-07-16T15:32:47.532Z,30.10
2018-07-16T15:35:18.956Z,29.60
2018-07-16T15:37:50.379Z,29.50
2018-07-16T15:40:21.831Z,29.70
2018-07-16T15:42:53.232Z,29.20
2018-07-16T15:45:24.778Z,29.10
2018-07-16T15:47:56.526Z,28.90
2018-07-16T15:50:28.125Z,28.80
2018-07-16T15:52:59.730Z,29.00
2018-07-16T15:55:31.317Z,29.10
2018-07-16T15:58:03.537Z,29.00
2018-07-16T16:00:35.470Z,28.90
2018-07-16T16:05:38.315Z,28.70
2018-07-16T16:08:09.891Z,28.80
2018-07-16T16:10:41.375Z,28.60
2018-07-16T16:13:12.642Z,28.30
2018-07-16T16:15:43.826Z,28.10
2018-07-16T16:18:15.463Z,28.00
2018-07-16T16:20:46.861Z,28.00
2018-07-16T16:23:18.348Z,27.80
2018-07-16T16:25:49.730Z,28.00
2018-07-16T16:28:21.182Z,28.00
2018-07-16T16:30:52.613Z,27.70
2018-07-16T16:33:24.087Z,27.80
2018-07-16T16:35:55.610Z,27.60
2018-07-16T16:38:27.285Z,27.50
2018-07-16T16:40:58.826Z,27.20
2018-07-16T16:43:30.371Z,27.00
2018-07-16T16:46:02.159Z,27.00
2018-07-16T16:48:33.736Z,27.00
2018-07-16T16:51:05.303Z,26.90
2018-07-16T16:53:36.852Z,27.00
2018-07-16T16:56:08.357Z,27.00
2018-07-16T16:58:39.958Z,27.10
2018-07-16T17:01:11.328Z,27.40
2018-07-16T17:03:42.794Z,27.40
2018-07-16T17:06:14.227Z,27.30
2018-07-16T17:08:45.726Z,27.40
2018-07-16T17:11:17.310Z,27.00
2018-07-16T17:13:48.328Z,26.90
2018-07-16T17:16:20.127Z,27.00
2018-07-16T17:18:51.819Z,27.00
2018-07-16T17:21:23.446Z,26.90
2018-07-16T17:23:54.950Z,27.10
2018-07-16T17:26:26.431Z,27.20
2018-07-16T17:28:57.953Z,27.10
2018-07-16T17:31:29.428Z,27.20
2018-07-16T17:34:01.123Z,27.10
2018-07-16T17:36:32.593Z,27.10
2018-07-16T17:39:05.014Z,26.80
2018-07-16T17:41:36.370Z,26.80
2018-07-16T17:46:38.674Z,26.70
2018-07-16T17:49:10.228Z,26.60
2018-07-16T17:51:41.670Z,26.60
2018-07-16T17:54:13.136Z,26.50
2018-07-16T17:56:44.512Z,26.60
2018-07-16T17:59:16.056Z,26.60
2018-07-16T18:01:47.546Z,26.70
2018-07-16T18:04:18.855Z,26.50
2018-07-16T18:06:50.416Z,26.50
2018-07-16T18:09:21.997Z,26.50
2018-07-16T18:11:53.479Z,26.30
2018-07-16T18:14:25.062Z,26.50
2018-07-16T18:16:56.493Z,26.40
2018-07-16T18:19:28.317Z,26.30
2018-07-16T18:22:00.115Z,26.20
2018-07-16T18:24:31.858Z,26.00
2018-07-16T18:27:03.546Z,26.00
2018-07-16T18:29:35.383Z,25.80
2018-07-16T18:32:07.018Z,25.70
2018-07-16T18:34:38.623Z,25.60
2018-07-16T18:37:10.615Z,25.30
2018-07-16T18:39:42.321Z,25.30
2018-07-16T18:42:13.946Z,25.20
2018-07-16T18:44:45.105Z,25.10
2018-07-16T18:47:16.367Z,25.00
2018-07-16T18:49:50.324Z,25.10
2018-07-16T18:52:21.894Z,25.20
2018-07-16T18:54:53.735Z,25.20
2018-07-16T18:57:25.182Z,25.10
2018-07-16T18:59:56.689Z,25.20
2018-07-16T19:02:28.640Z,25.20
2018-07-16T19:05:00.208Z,25.00
2018-07-16T19:07:31.860Z,25.10
2018-07-16T19:10:03.473Z,25.10
2018-07-16T19:12:35.184Z,25.20
2018-07-16T19:15:15.087Z,25.10
2018-07-16T19:17:46.588Z,25.00
2018-07-16T19:20:18.264Z,24.90
2018-07-16T19:22:49.876Z,24.80
2018-07-16T19:25:21.448Z,24.70
2018-07-16T19:27:53.397Z,24.50
2018-07-16T19:30:25.403Z,24.50
2018-07-16T19:32:57.035Z,24.50
2018-07-16T19:35:29.046Z,24.50
2018-07-16T19:38:00.502Z,24.50
2018-07-16T19:40:32.251Z,24.50
2018-07-16T19:43:03.843Z,24.40
2018-07-16T19:45:35.397Z,24.30
2018-07-16T19:48:06.935Z,24.50
2018-07-16T19:50:38.432Z,24.50
2018-07-16T19:53:09.920Z,24.40
2018-07-16T19:55:41.389Z,24.40
2018-07-16T19:58:12.810Z,24.40
2018-07-16T20:00:44.472Z,24.50
2018-07-16T20:03:15.618Z,24.40
2018-07-16T20:05:46.907Z,24.50
2018-07-16T20:08:18.794Z,24.50
2018-07-16T20:10:50.296Z,24.50
2018-07-16T20:13:21.892Z,24.50
2018-07-16T20:15:53.229Z,24.40
2018-07-16T20:18:24.656Z,24.50
2018-07-16T20:20:58.548Z,24.50
2018-07-16T20:23:29.881Z,24.40
2018-07-16T20:26:01.444Z,24.50
2018-07-16T20:28:33.001Z,24.40
2018-07-16T20:33:35.469Z,24.50
2018-07-16T20:36:07.062Z,24.40
2018-07-16T20:38:38.463Z,24.50
2018-07-16T20:41:10.002Z,24.50
2018-07-16T20:43:41.323Z,24.50
2018-07-16T20:46:12.627Z,24.50
2018-07-16T20:48:44.005Z,24.50
2018-07-16T20:51:15.345Z,24.50
2018-07-16T20:53:46.908Z,24.50
2018-07-16T20:56:18.257Z,24.50
2018-07-16T20:58:49.745Z,24.40
2018-07-16T21:01:21.328Z,24.40
2018-07-16T21:03:52.881Z,24.50
2018-07-16T21:06:24.503Z,24.50
2018-07-16T21:08:56.267Z,24.40
2018-07-16T21:11:27.792Z,24.30
2018-07-16T21:13:59.224Z,24.40
2018-07-16T21:19:01.588Z,24.40
2018-07-16T21:21:32.890Z,24.40
2018-07-16T21:24:04.432Z,24.30
2018-07-16T21:26:35.826Z,24.30
2018-07-16T21:29:07.175Z,24.40
2018-07-16T21:31:38.769Z,24.50
2018-07-16T21:34:10.091Z,24.40
2018-07-16T21:36:41.319Z,24.30
2018-07-16T21:39:12.688Z,24.30
2018-07-16T21:41:44.115Z,24.20
2018-07-16T21:44:15.481Z,24.30
2018-07-16T21:46:46.955Z,24.30
2018-07-16T21:49:18.435Z,24.40
2018-07-16T21:51:49.994Z,24.30
2018-07-16T21:54:21.636Z,24.20
2018-07-16T21:56:53.156Z,24.20
2018-07-16T21:59:24.458Z,24.20
2018-07-16T22:01:55.960Z,24.30
2018-07-16T22:04:27.378Z,24.10
2018-07-16T22:06:58.908Z,24.10
2018-07-16T22:09:30.054Z,24.10
2018-07-16T22:12:01.655Z,24.20
2018-07-16T22:14:32.976Z,24.20
2018-07-16T22:17:04.439Z,24.20
2018-07-16T22:19:35.869Z,24.10
2018-07-16T22:22:07.452Z,24.10
2018-07-16T22:24:38.782Z,24.10
2018-07-16T22:27:10.171Z,24.10
2018-07-16T22:29:41.389Z,23.90
2018-07-16T22:32:12.841Z,23.90
2018-07-16T22:34:44.284Z,23.70
2018-07-16T22:37:16.068Z,23.70
2018-07-16T22:42:18.180Z,23.50
2018-07-16T22:44:49.620Z,23.50
2018-07-16T22:47:21.040Z,23.30
2018-07-16T22:49:52.385Z,23.20
2018-07-16T22:52:23.776Z,23.20
2018-07-16T22:54:55.866Z,23.20
2018-07-16T22:57:27.606Z,23.10
2018-07-16T22:59:59.171Z,23.00
2018-07-16T23:02:30.756Z,23.10
2018-07-16T23:05:02.251Z,23.00
2018-07-16T23:07:33.699Z,23.00
2018-07-16T23:10:05.240Z,23.00
2018-07-16T23:12:36.667Z,23.00
2018-07-16T23:15:08.211Z,22.90
2018-07-16T23:17:39.657Z,22.90
2018-07-16T23:20:10.974Z,22.90
2018-07-16T23:22:53.463Z,22.90
2018-07-16T23:25:24.898Z,22.80
2018-07-16T23:27:56.146Z,22.70
2018-07-16T23:30:28.580Z,22.60
2018-07-16T23:32:59.860Z,22.70
2018-07-16T23:35:31.133Z,22.70
2018-07-16T23:38:02.562Z,22.70
2018-07-16T23:40:33.884Z,22.70
2018-07-16T23:43:05.234Z,22.60
2018-07-16T23:45:36.358Z,22.60
2018-07-16T23:48:08.649Z,22.50
2018-07-16T23:50:40.114Z,22.40
2018-07-16T23:53:11.579Z,22.30
2018-07-16T23:55:43.035Z,22.50
2018-07-16T23:58:14.716Z,22.40
